createdAt,value
2023-04-24T00:01:08.997Z,99340.63
2023-04-24T00:03:36.518Z,99342.94
2023-04-24T00:06:03.787Z,99335.28
2023-04-24T00:08:30.526Z,99336.59
2023-04-24T00:10:57.409Z,99329.59
2023-04-24T00:13:24.270Z,99330.53
2023-04-24T00:15:51.015Z,99332.53
2023-04-24T00:18:18.069Z,99336.41
2023-04-24T00:20:44.798Z,99333.31
2023-04-24T00:23:11.472Z,99340.69
2023-04-24T00:25:38.075Z,99340.47
2023-04-24T00:28:04.741Z,99339.81
2023-04-24T00:30:31.571Z,99347.00
2023-04-24T00:32:58.863Z,99352.06
2023-04-24T00:35:25.715Z,99351.84
2023-04-24T00:37:52.349Z,99356.44
2023-04-24T00:40:19.154Z,99353.84
2023-04-24T00:42:45.991Z,99353.03
2023-04-24T00:45:13.635Z,99350.06
2023-04-24T00:47:40.472Z,99353.75
2023-04-24T00:50:08.091Z,99341.38
2023-04-24T00:52:35.484Z,99329.25
2023-04-24T00:55:02.201Z,99333.94
2023-04-24T00:57:29.361Z,99331.31
2023-04-24T00:59:56.194Z,99334.03
2023-04-24T01:02:23.717Z,99336.13
2023-04-24T01:04:52.049Z,99329.59
2023-04-24T01:07:21.101Z,99325.47
2023-04-24T01:09:49.077Z,99336.91
2023-04-24T01:12:16.396Z,99326.06
2023-04-24T01:14:43.890Z,99325.88
2023-04-24T01:17:10.564Z,99323.47
2023-04-24T01:19:37.264Z,99339.34
2023-04-24T01:22:12.348Z,99331.09
2023-04-24T01:24:39.363Z,99331.94
2023-04-24T01:27:06.397Z,99324.50
2023-04-24T01:29:33.349Z,99330.53
2023-04-24T01:32:00.143Z,99330.28
2023-04-24T01:34:27.352Z,99319.03
2023-04-24T01:36:54.237Z,99320.91
2023-04-24T01:39:21.106Z,99316.06
2023-04-24T01:41:47.752Z,99310.25
2023-04-24T01:44:15.355Z,99324.25
2023-04-24T01:46:42.343Z,99316.78
2023-04-24T01:49:09.192Z,99319.81
2023-04-24T01:51:36.330Z,99312.56
2023-04-24T01:54:03.286Z,99311.59
2023-04-24T01:56:30.778Z,99309.09
2023-04-24T01:58:58.305Z,99298.91
2023-04-24T02:01:25.496Z,99297.97
2023-04-24T02:03:53.248Z,99284.00
2023-04-24T02:06:19.963Z,99277.34
2023-04-24T02:08:46.571Z,99264.22
2023-04-24T02:11:13.292Z,99256.38
2023-04-24T02:13:39.899Z,99246.34
2023-04-24T02:16:06.855Z,99239.44
2023-04-24T02:18:33.620Z,99227.50
2023-04-24T02:21:00.215Z,99217.31
2023-04-24T02:23:26.869Z,99214.44
2023-04-24T02:25:53.788Z,99210.09
2023-04-24T02:28:20.778Z,99215.59
2023-04-24T02:30:47.412Z,99220.44
2023-04-24T02:33:14.040Z,99226.88
2023-04-24T02:35:40.869Z,99213.44
2023-04-24T02:38:07.666Z,99217.22
2023-04-24T02:40:34.357Z,99211.13
2023-04-24T02:43:01.008Z,99218.53
2023-04-24T02:45:27.637Z,99211.53
2023-04-24T02:47:54.335Z,99215.63
2023-04-24T02:50:21.048Z,99207.03
2023-04-24T02:52:47.674Z,99210.75
2023-04-24T02:55:14.413Z,99209.91
2023-04-24T02:57:41.110Z,99212.56
2023-04-24T03:00:08.328Z,99209.19
2023-04-24T03:02:35.097Z,99207.16
2023-04-24T03:05:02.260Z,99204.75
2023-04-24T03:07:29.049Z,99201.94
2023-04-24T03:09:55.689Z,99203.00
2023-04-24T03:12:22.366Z,99202.06
2023-04-24T03:14:49.036Z,99199.72
2023-04-24T03:17:15.683Z,99201.53
2023-04-24T03:19:42.514Z,99214.16
2023-04-24T03:22:09.356Z,99218.25
2023-04-24T03:24:36.370Z,99224.22
2023-04-24T03:27:03.183Z,99218.63
2023-04-24T03:29:30.457Z,99217.84
2023-04-24T03:31:57.255Z,99216.38
2023-04-24T03:34:23.953Z,99214.78
2023-04-24T03:36:50.635Z,99223.00
2023-04-24T03:39:17.310Z,99214.31
2023-04-24T03:41:43.886Z,99204.38
2023-04-24T03:44:10.559Z,99204.91
2023-04-24T03:46:37.405Z,99198.78
2023-04-24T03:49:04.128Z,99206.00
2023-04-24T03:51:30.762Z,99208.56
2023-04-24T03:53:57.467Z,99198.63
2023-04-24T03:56:24.113Z,99196.88
2023-04-24T03:58:50.786Z,99207.34
2023-04-24T04:01:17.440Z,99201.47
2023-04-24T04:03:44.369Z,99205.38
2023-04-24T04:06:11.255Z,99202.53
2023-04-24T04:08:38.016Z,99202.50
2023-04-24T04:11:05.562Z,99199.22
2023-04-24T04:13:32.248Z,99194.94
2023-04-24T04:15:59.032Z,99203.47
2023-04-24T04:18:25.718Z,99199.69
2023-04-24T04:20:52.447Z,99207.06
2023-04-24T04:23:19.110Z,99197.28
2023-04-24T04:25:45.805Z,99200.56
2023-04-24T04:28:12.463Z,99200.22
2023-04-24T04:30:39.146Z,99202.03
2023-04-24T04:33:05.832Z,99197.75
2023-04-24T04:35:32.737Z,99200.72
2023-04-24T04:37:59.364Z,99216.31
2023-04-24T04:40:26.100Z,99217.94
2023-04-24T04:42:52.723Z,99217.09
2023-04-24T04:45:19.948Z,99209.09
2023-04-24T04:47:46.840Z,99211.19
2023-04-24T04:50:13.467Z,99207.81
2023-04-24T04:52:40.115Z,99191.16
2023-04-24T04:55:07.409Z,99193.88
2023-04-24T04:57:34.208Z,99195.25
2023-04-24T05:00:00.848Z,99192.91
2023-04-24T05:02:27.573Z,99184.88
2023-04-24T05:04:54.507Z,99175.16
2023-04-24T05:07:21.468Z,99169.50
2023-04-24T05:09:48.253Z,99171.91
2023-04-24T05:12:14.904Z,99178.31
2023-04-24T05:14:41.628Z,99176.28
2023-04-24T05:17:08.497Z,99175.94
2023-04-24T05:19:35.167Z,99167.41
2023-04-24T05:22:01.847Z,99169.09
2023-04-24T05:24:28.463Z,99176.91
2023-04-24T05:26:55.297Z,99173.56
2023-04-24T05:29:21.954Z,99174.03
2023-04-24T05:31:48.694Z,99174.13
2023-04-24T05:34:15.400Z,99176.72
2023-04-24T05:36:42.126Z,99178.34
2023-04-24T05:39:08.800Z,99180.81
2023-04-24T05:41:35.635Z,99176.31
2023-04-24T05:44:02.282Z,99183.66
2023-04-24T05:46:29.182Z,99188.28
2023-04-24T05:48:55.899Z,99189.94
2023-04-24T05:51:22.595Z,99194.56
2023-04-24T05:53:49.209Z,99205.91
2023-04-24T05:56:16.300Z,99203.31
2023-04-24T05:58:43.316Z,99208.44
2023-04-24T06:01:10.197Z,99199.38
2023-04-24T06:03:37.033Z,99201.22
2023-04-24T06:06:04.036Z,99202.50
2023-04-24T06:08:30.737Z,99213.91
2023-04-24T06:10:57.525Z,99215.09
2023-04-24T06:13:24.151Z,99207.81
2023-04-24T06:15:52.333Z,99213.28
2023-04-24T06:18:19.003Z,99220.31
2023-04-24T06:20:46.603Z,99230.94
2023-04-24T06:23:13.385Z,99229.56
2023-04-24T06:25:40.047Z,99225.38
2023-04-24T06:28:06.851Z,99217.59
2023-04-24T06:30:33.563Z,99225.81
2023-04-24T06:33:06.150Z,99224.81
2023-04-24T06:35:45.698Z,99213.91
2023-04-24T06:38:12.334Z,99206.78
2023-04-24T06:40:39.714Z,99213.91
2023-04-24T06:43:06.488Z,99216.97
2023-04-24T06:45:33.222Z,99228.16
2023-04-24T06:48:00.040Z,99233.69
2023-04-24T06:50:26.813Z,99223.00
2023-04-24T06:52:53.506Z,99233.44
2023-04-24T06:55:20.212Z,99233.41
2023-04-24T06:57:46.919Z,99234.72
2023-04-24T07:00:14.135Z,99234.88
2023-04-24T07:02:40.928Z,99221.00
2023-04-24T07:05:07.913Z,99223.47
2023-04-24T07:07:34.666Z,99211.44
2023-04-24T07:10:01.409Z,99204.63
2023-04-24T07:12:28.157Z,99204.03
2023-04-24T07:14:54.862Z,99213.00
2023-04-24T07:17:21.552Z,99202.69
2023-04-24T07:19:48.290Z,99207.31
2023-04-24T07:22:14.931Z,99211.69
2023-04-24T07:24:41.645Z,99208.75
2023-04-24T07:27:08.325Z,99215.25
2023-04-24T07:29:35.067Z,99210.78
2023-04-24T07:32:03.901Z,99219.88
2023-04-24T07:34:31.148Z,99219.22
2023-04-24T07:36:57.969Z,99223.84
2023-04-24T07:39:25.028Z,99222.25
2023-04-24T07:41:51.736Z,99222.09
2023-04-24T07:44:18.681Z,99219.88
2023-04-24T07:46:45.521Z,99221.13
2023-04-24T07:49:13.671Z,99220.13
2023-04-24T07:51:41.089Z,99220.22
2023-04-24T07:54:07.828Z,99217.72
2023-04-24T07:56:34.775Z,99214.31
2023-04-24T07:59:01.594Z,99215.97
2023-04-24T08:01:28.424Z,99203.59
2023-04-24T08:03:55.232Z,99200.69
2023-04-24T08:06:22.047Z,99203.03
2023-04-24T08:08:48.797Z,99214.72
2023-04-24T08:11:15.406Z,99214.72
2023-04-24T08:13:42.088Z,99211.28
2023-04-24T08:16:08.836Z,99206.22
2023-04-24T08:18:35.584Z,99200.97
2023-04-24T08:21:02.514Z,99196.44
2023-04-24T08:23:29.337Z,99190.53
2023-04-24T08:25:56.171Z,99197.38
2023-04-24T08:28:23.173Z,99199.50
2023-04-24T08:30:51.961Z,99203.06
2023-04-24T08:33:18.737Z,99208.00
2023-04-24T08:35:45.436Z,99204.81
2023-04-24T08:38:12.153Z,99198.59
2023-04-24T08:40:39.054Z,99198.84
2023-04-24T08:43:05.782Z,99210.31
2023-04-24T08:45:33.776Z,99200.56
2023-04-24T08:48:01.286Z,99205.13
2023-04-24T08:50:28.247Z,99193.84
2023-04-24T08:52:54.834Z,99196.50
2023-04-24T08:55:22.310Z,99199.25
2023-04-24T08:57:53.599Z,99200.28
2023-04-24T09:00:21.889Z,99204.09
2023-04-24T09:02:51.069Z,99198.38
2023-04-24T09:05:18.625Z,99191.78
2023-04-24T09:07:51.087Z,99190.06
2023-04-24T09:10:17.713Z,99179.91
2023-04-24T09:12:45.281Z,99189.31
2023-04-24T09:15:12.377Z,99192.75
2023-04-24T09:17:39.365Z,99186.03
2023-04-24T09:20:06.757Z,99190.69
2023-04-24T09:22:33.503Z,99192.44
2023-04-24T09:25:08.706Z,99195.41
2023-04-24T09:27:36.324Z,99190.66
2023-04-24T09:30:03.886Z,99190.63
2023-04-24T09:32:30.625Z,99178.72
2023-04-24T09:35:12.733Z,99185.47
2023-04-24T09:37:44.386Z,99185.28
2023-04-24T09:40:18.681Z,99177.38
2023-04-24T09:42:54.849Z,99171.25
2023-04-24T09:45:22.445Z,99169.53
2023-04-24T09:47:53.388Z,99178.69
2023-04-24T09:50:20.962Z,99174.44
2023-04-24T09:52:57.999Z,99174.25
2023-04-24T09:55:26.162Z,99167.38
2023-04-24T09:57:58.299Z,99163.22
2023-04-24T10:00:30.371Z,99164.22
2023-04-24T10:03:06.672Z,99167.88
2023-04-24T10:05:37.925Z,99165.34
2023-04-24T10:08:08.328Z,99164.91
2023-04-24T10:10:39.136Z,99161.91
2023-04-24T10:13:06.039Z,99168.19
2023-04-24T10:15:33.129Z,99163.00
2023-04-24T10:18:00.390Z,99161.94
2023-04-24T10:20:29.846Z,99163.19
2023-04-24T10:22:56.912Z,99153.38
2023-04-24T10:25:29.192Z,99158.06
2023-04-24T10:27:56.414Z,99152.44
2023-04-24T10:30:23.070Z,99157.88
2023-04-24T10:32:49.908Z,99148.50
2023-04-24T10:35:18.913Z,99146.72
2023-04-24T10:37:49.613Z,99149.06
2023-04-24T10:40:20.730Z,99154.28
2023-04-24T10:42:52.974Z,99157.44
2023-04-24T10:45:24.354Z,99149.16
2023-04-24T10:48:05.757Z,99150.75
2023-04-24T10:50:52.939Z,99148.97
2023-04-24T10:53:22.112Z,99151.28
2023-04-24T10:55:51.880Z,99153.63
2023-04-24T10:58:24.443Z,99142.34
2023-04-24T11:01:01.545Z,99151.06
2023-04-24T11:03:29.187Z,99147.44
2023-04-24T11:06:09.542Z,99149.59
2023-04-24T11:08:46.411Z,99150.84
2023-04-24T11:11:15.770Z,99138.97
2023-04-24T11:13:54.803Z,99139.97
2023-04-24T11:16:24.293Z,99131.63
2023-04-24T11:19:21.810Z,99138.94
2023-04-24T11:21:48.426Z,99128.94
2023-04-24T11:24:36.459Z,99132.38
2023-04-24T11:27:07.391Z,99130.22
2023-04-24T11:29:51.160Z,99122.88
2023-04-24T11:32:38.974Z,99112.63
2023-04-24T11:35:09.002Z,99124.88
2023-04-24T11:37:40.666Z,99116.63
2023-04-24T11:40:09.667Z,99121.38
2023-04-24T11:42:50.561Z,99117.75
2023-04-24T11:45:23.835Z,99108.78
2023-04-24T11:47:51.381Z,99104.63
2023-04-24T11:50:20.614Z,99099.22
2023-04-24T11:52:49.474Z,99099.13
2023-04-24T11:55:16.058Z,99097.09
2023-04-24T11:57:47.412Z,99095.09
2023-04-24T12:00:22.938Z,99098.06
2023-04-24T12:02:51.106Z,99104.72
2023-04-24T12:05:27.150Z,99100.66
2023-04-24T12:07:54.890Z,99115.84
2023-04-24T12:10:26.678Z,99117.78
2023-04-24T12:12:54.255Z,99117.13
2023-04-24T12:15:24.810Z,99100.88
2023-04-24T12:17:52.951Z,99095.31
2023-04-24T12:20:25.936Z,99096.56
2023-04-24T12:22:53.450Z,99095.88
2023-04-24T12:25:25.081Z,99087.22
2023-04-24T12:28:06.930Z,99079.22
2023-04-24T12:30:44.158Z,99081.16
2023-04-24T12:33:11.137Z,99078.72
2023-04-24T12:35:41.948Z,99069.97
2023-04-24T12:38:11.300Z,99064.19
2023-04-24T12:40:38.047Z,99075.81
2023-04-24T12:43:20.498Z,99074.50
2023-04-24T12:45:49.330Z,99072.59
2023-04-24T12:48:16.024Z,99054.28
2023-04-24T12:50:45.697Z,99066.19
2023-04-24T12:53:13.327Z,99063.38
2023-04-24T12:55:40.015Z,99057.94
2023-04-24T12:58:06.697Z,99053.03
2023-04-24T13:00:33.796Z,99053.69
2023-04-24T13:03:00.884Z,99047.22
2023-04-24T13:05:27.881Z,99044.88
2023-04-24T13:07:54.542Z,99042.16
2023-04-24T13:10:21.351Z,99041.19
2023-04-24T13:12:48.106Z,99045.00
2023-04-24T13:15:15.033Z,99035.19
2023-04-24T13:17:41.855Z,99037.56
2023-04-24T13:20:08.811Z,99030.97
2023-04-24T13:22:35.446Z,99037.97
2023-04-24T13:25:02.195Z,99024.91
2023-04-24T13:27:28.953Z,99021.81
2023-04-24T13:29:55.616Z,99025.78
2023-04-24T13:32:22.344Z,99023.97
2023-04-24T13:34:49.137Z,99028.44
2023-04-24T13:37:15.773Z,99019.53
2023-04-24T13:39:42.525Z,99022.69
2023-04-24T13:42:09.653Z,99019.63
2023-04-24T13:44:36.561Z,99016.41
2023-04-24T13:47:03.253Z,99024.72
2023-04-24T13:49:29.925Z,99018.66
2023-04-24T13:51:57.238Z,99027.09
2023-04-24T13:54:24.097Z,99025.25
2023-04-24T13:56:50.972Z,99027.81
2023-04-24T13:59:17.863Z,99033.19
2023-04-24T14:01:44.751Z,99024.19
2023-04-24T14:04:11.841Z,99020.56
2023-04-24T14:06:38.605Z,99024.00
2023-04-24T14:09:05.294Z,99026.94
2023-04-24T14:11:32.097Z,99023.56
2023-04-24T14:13:58.918Z,99029.13
2023-04-24T14:16:26.015Z,99030.84
2023-04-24T14:18:52.933Z,99025.16
2023-04-24T14:21:19.544Z,99036.13
2023-04-24T14:23:46.404Z,99036.63
2023-04-24T14:26:13.386Z,99037.28
2023-04-24T14:28:40.398Z,99037.25
2023-04-24T14:31:07.187Z,99028.63
2023-04-24T14:33:33.919Z,99034.03
2023-04-24T14:36:00.632Z,99035.28
2023-04-24T14:38:27.308Z,99037.38
2023-04-24T14:43:23.671Z,99038.34
2023-04-24T14:45:50.588Z,99038.84
2023-04-24T14:48:17.232Z,99035.06
2023-04-24T14:50:43.993Z,99039.81
2023-04-24T14:53:10.779Z,99042.44
2023-04-24T14:55:37.396Z,99039.56
2023-04-24T14:58:04.751Z,99044.19
2023-04-24T15:00:31.476Z,99048.53
2023-04-24T15:02:58.317Z,99049.81
2023-04-24T15:05:25.703Z,99042.81
2023-04-24T15:07:52.563Z,99043.03
2023-04-24T15:10:19.222Z,99045.81
2023-04-24T15:12:46.133Z,99049.59
2023-04-24T15:15:12.813Z,99052.94
2023-04-24T15:17:39.681Z,99038.16
2023-04-24T15:20:07.667Z,99042.53
2023-04-24T15:22:34.487Z,99042.69
2023-04-24T15:25:01.125Z,99048.25
2023-04-24T15:27:27.751Z,99051.84
2023-04-24T15:29:54.756Z,99050.03
2023-04-24T15:32:21.523Z,99045.09
2023-04-24T15:34:49.510Z,99047.00
2023-04-24T15:37:20.766Z,99036.19
2023-04-24T15:39:47.431Z,99040.94
2023-04-24T15:42:14.074Z,99059.63
2023-04-24T15:44:40.807Z,99042.03
2023-04-24T15:47:07.725Z,99050.00
2023-04-24T15:49:34.542Z,99050.94
2023-04-24T15:52:01.253Z,99051.25
2023-04-24T15:54:27.909Z,99053.91
2023-04-24T15:56:54.566Z,99048.78
2023-04-24T15:59:21.292Z,99052.44
2023-04-24T16:01:47.952Z,99041.06
2023-04-24T16:04:14.936Z,99039.66
2023-04-24T16:06:42.211Z,99040.94
2023-04-24T16:09:12.047Z,99034.34
2023-04-24T16:11:38.930Z,99036.81
2023-04-24T16:14:06.072Z,99039.22
2023-04-24T16:16:33.113Z,99035.47
2023-04-24T16:18:59.760Z,99032.56
2023-04-24T16:21:26.433Z,99032.97
2023-04-24T16:23:53.069Z,99027.59
2023-04-24T16:26:19.791Z,99033.03
2023-04-24T16:28:46.729Z,99035.41
2023-04-24T16:31:13.579Z,99030.16
2023-04-24T16:33:40.250Z,99027.72
2023-04-24T16:36:07.629Z,99027.19
2023-04-24T16:38:34.999Z,99026.25
2023-04-24T16:41:01.645Z,99026.34
2023-04-24T16:43:28.347Z,99023.16
2023-04-24T16:45:54.990Z,99031.47
2023-04-24T16:48:21.774Z,99034.19
2023-04-24T16:50:48.425Z,99041.38
2023-04-24T16:53:15.032Z,99042.25
2023-04-24T16:55:41.710Z,99036.75
2023-04-24T16:58:08.338Z,99036.94
2023-04-24T17:00:35.019Z,99036.59
2023-04-24T17:03:01.932Z,99040.31
2023-04-24T17:05:28.821Z,99041.66
2023-04-24T17:07:55.533Z,99050.84
2023-04-24T17:10:22.307Z,99048.03
2023-04-24T17:12:48.909Z,99046.28
2023-04-24T17:15:15.657Z,99044.84
2023-04-24T17:17:42.563Z,99050.84
2023-04-24T17:20:21.482Z,99043.31
2023-04-24T17:22:49.795Z,99046.69
2023-04-24T17:25:16.650Z,99044.69
2023-04-24T17:27:44.542Z,99042.63
2023-04-24T17:30:11.909Z,99041.84
2023-04-24T17:32:38.671Z,99051.31
2023-04-24T17:35:05.923Z,99053.88
2023-04-24T17:37:33.650Z,99054.09
2023-04-24T17:40:00.467Z,99044.44
2023-04-24T17:42:27.214Z,99045.06
2023-04-24T17:44:53.855Z,99055.16
2023-04-24T17:47:20.595Z,99051.22
2023-04-24T17:49:47.357Z,99056.44
2023-04-24T17:52:14.066Z,99060.13
2023-04-24T17:54:40.736Z,99071.44
2023-04-24T17:57:07.528Z,99069.25
2023-04-24T17:59:34.287Z,99073.25
2023-04-24T18:02:00.981Z,99075.44
2023-04-24T18:04:27.907Z,99076.72
2023-04-24T18:06:54.682Z,99077.94
2023-04-24T18:09:21.501Z,99075.53
2023-04-24T18:11:48.274Z,99079.50
2023-04-24T18:14:14.873Z,99080.09
2023-04-24T18:16:41.809Z,99081.44
2023-04-24T18:19:08.561Z,99085.00
2023-04-24T18:21:35.208Z,99084.25
2023-04-24T18:24:01.851Z,99082.19
2023-04-24T18:26:28.499Z,99085.91
2023-04-24T18:28:55.257Z,99088.78
2023-04-24T18:31:21.971Z,99080.94
2023-04-24T18:33:48.742Z,99088.94
2023-04-24T18:36:15.497Z,99098.31
2023-04-24T18:38:42.210Z,99094.31
2023-04-24T18:41:08.859Z,99103.00
2023-04-24T18:43:37.790Z,99105.00
2023-04-24T18:46:04.390Z,99102.13
2023-04-24T18:48:31.059Z,99110.16
2023-04-24T18:50:57.922Z,99105.63
2023-04-24T18:53:24.628Z,99110.81
2023-04-24T18:55:51.275Z,99117.41
2023-04-24T18:58:17.949Z,99123.81
2023-04-24T19:00:44.695Z,99126.41
2023-04-24T19:03:11.525Z,99131.78
2023-04-24T19:05:38.463Z,99127.88
2023-04-24T19:08:05.199Z,99126.00
2023-04-24T19:10:31.857Z,99123.91
2023-04-24T19:12:58.510Z,99127.03
2023-04-24T19:15:25.755Z,99123.13
2023-04-24T19:17:52.474Z,99121.66
2023-04-24T19:20:20.498Z,99129.50
2023-04-24T19:22:47.791Z,99127.88
2023-04-24T19:25:15.448Z,99119.34
2023-04-24T19:27:42.134Z,99127.59
2023-04-24T19:30:10.427Z,99129.38
2023-04-24T19:32:37.197Z,99120.50
2023-04-24T19:35:04.235Z,99131.97
2023-04-24T19:37:30.865Z,99127.38
2023-04-24T19:39:57.830Z,99122.84
2023-04-24T19:42:35.791Z,99124.91
2023-04-24T19:45:04.017Z,99133.69
2023-04-24T19:47:30.821Z,99122.56
2023-04-24T19:49:57.465Z,99124.09
2023-04-24T19:52:24.317Z,99130.28
2023-04-24T19:54:50.999Z,99132.25
2023-04-24T19:57:17.691Z,99129.28
2023-04-24T19:59:44.497Z,99124.09
2023-04-24T20:02:11.756Z,99123.03
2023-04-24T20:04:38.606Z,99124.56
2023-04-24T20:07:05.453Z,99114.97
2023-04-24T20:09:33.028Z,99112.03
2023-04-24T20:12:00.880Z,99115.59
2023-04-24T20:14:27.548Z,99118.44
2023-04-24T20:16:54.361Z,99115.13
2023-04-24T20:19:21.525Z,99123.94
2023-04-24T20:21:48.569Z,99130.03
2023-04-24T20:24:15.284Z,99126.25
2023-04-24T20:26:42.398Z,99123.19
2023-04-24T20:29:09.059Z,99119.22
2023-04-24T20:31:35.719Z,99121.69
2023-04-24T20:34:03.025Z,99120.53
2023-04-24T20:36:29.660Z,99120.66
2023-04-24T20:38:56.333Z,99120.75
2023-04-24T20:41:23.056Z,99115.53
2023-04-24T20:43:49.720Z,99118.56
2023-04-24T20:46:16.526Z,99119.81
2023-04-24T20:48:43.170Z,99117.09
2023-04-24T20:51:09.856Z,99119.50
2023-04-24T20:53:36.464Z,99125.41
2023-04-24T20:56:03.511Z,99121.34
2023-04-24T20:58:30.302Z,99123.53
2023-04-24T21:00:56.930Z,99118.97
2023-04-24T21:03:23.698Z,99120.25
2023-04-24T21:05:52.448Z,99122.88
2023-04-24T21:08:19.349Z,99115.44
2023-04-24T21:10:46.053Z,99115.22
2023-04-24T21:13:12.717Z,99116.41
2023-04-24T21:15:39.575Z,99109.22
2023-04-24T21:18:06.395Z,99112.56
2023-04-24T21:20:33.174Z,99106.97
2023-04-24T21:22:59.871Z,99113.44
2023-04-24T21:25:26.916Z,99107.38
2023-04-24T21:27:53.976Z,99103.38
2023-04-24T21:30:21.322Z,99100.47
2023-04-24T21:32:48.400Z,99102.41
2023-04-24T21:35:15.040Z,99099.22
2023-04-24T21:37:41.711Z,99106.91
2023-04-24T21:40:08.916Z,99102.38
2023-04-24T21:42:35.848Z,99099.06
2023-04-24T21:45:03.417Z,99099.34
2023-04-24T21:47:30.149Z,99106.59
2023-04-24T21:49:56.959Z,99099.59
2023-04-24T21:52:23.615Z,99100.38
2023-04-24T21:54:50.306Z,99092.66
2023-04-24T21:57:17.120Z,99094.19
2023-04-24T21:59:43.969Z,99087.91
2023-04-24T22:02:10.666Z,99085.41
2023-04-24T22:04:37.740Z,99078.25
2023-04-24T22:07:04.867Z,99080.88
2023-04-24T22:09:31.593Z,99073.97
2023-04-24T22:11:58.261Z,99078.53
2023-04-24T22:14:24.926Z,99074.63
2023-04-24T22:16:51.648Z,99068.72
2023-04-24T22:19:18.249Z,99069.06
2023-04-24T22:21:44.866Z,99069.63
2023-04-24T22:24:14.706Z,99069.72
2023-04-24T22:26:41.397Z,99067.06
2023-04-24T22:29:07.988Z,99054.28
2023-04-24T22:31:34.764Z,99065.94
2023-04-24T22:34:01.587Z,99061.56
2023-04-24T22:36:28.302Z,99065.41
2023-04-24T22:38:54.949Z,99063.75
2023-04-24T22:41:22.124Z,99071.38
2023-04-24T22:43:49.009Z,99064.84
2023-04-24T22:46:16.536Z,99070.41
2023-04-24T22:48:43.258Z,99077.72
2023-04-24T22:51:09.902Z,99074.53
2023-04-24T22:53:36.518Z,99079.19
2023-04-24T22:56:03.289Z,99082.78
2023-04-24T22:58:29.992Z,99082.47
2023-04-24T23:00:56.683Z,99080.50
2023-04-24T23:03:23.548Z,99080.41
2023-04-24T23:05:50.378Z,99081.25
2023-04-24T23:08:16.992Z,99083.38
2023-04-24T23:10:43.909Z,99066.88
2023-04-24T23:13:10.598Z,99070.72
2023-04-24T23:15:37.282Z,99066.50
2023-04-24T23:18:03.940Z,99060.25
2023-04-24T23:20:30.658Z,99057.28
2023-04-24T23:22:57.357Z,99057.13
2023-04-24T23:25:24.019Z,99052.38
2023-04-24T23:27:50.659Z,99058.72
2023-04-24T23:30:17.582Z,99053.47
2023-04-24T23:32:44.403Z,99055.84
2023-04-24T23:35:11.539Z,99052.88
2023-04-24T23:37:38.411Z,99049.06
2023-04-24T23:40:08.656Z,99049.66
2023-04-24T23:42:35.345Z,99044.53
2023-04-24T23:45:02.144Z,99041.47
2023-04-24T23:47:28.955Z,99042.75
2023-04-24T23:49:56.168Z,99035.19
2023-04-24T23:52:22.865Z,99032.63
2023-04-24T23:54:49.518Z,99036.97
2023-04-24T23:57:16.400Z,99029.91
2023-04-24T23:59:43.044Z,99033.41
